createdAt,value
2023-04-08T00:01:20.844Z,8.20
2023-04-08T00:03:48.820Z,8.20
2023-04-08T00:06:17.218Z,8.20
2023-04-08T00:08:45.242Z,8.20
2023-04-08T00:11:13.103Z,8.20
2023-04-08T00:13:41.173Z,8.20
2023-04-08T00:16:10.496Z,8.20
2023-04-08T00:18:39.187Z,8.20
2023-04-08T00:21:07.153Z,8.20
2023-04-08T00:23:35.658Z,8.30
2023-04-08T00:26:03.573Z,8.30
2023-04-08T00:28:32.140Z,8.30
2023-04-08T00:30:59.987Z,8.30
2023-04-08T00:33:29.296Z,8.30
2023-04-08T00:35:57.289Z,8.40
2023-04-08T00:38:25.532Z,8.40
2023-04-08T00:40:53.435Z,8.40
2023-04-08T00:43:21.777Z,8.40
2023-04-08T00:45:49.715Z,8.40
2023-04-08T00:48:17.689Z,8.40
2023-04-08T00:50:47.207Z,8.40
2023-04-08T00:53:18.387Z,8.40
2023-04-08T00:55:46.734Z,8.40
2023-04-08T00:58:15.378Z,8.40
2023-04-08T01:00:49.005Z,8.40
2023-04-08T01:03:21.800Z,8.40
2023-04-08T01:06:04.149Z,8.40
2023-04-08T01:08:33.862Z,8.40
2023-04-08T01:11:04.262Z,8.50
2023-04-08T01:13:37.588Z,8.50
2023-04-08T01:16:06.227Z,8.40
2023-04-08T01:18:36.573Z,8.40
2023-04-08T01:21:07.439Z,8.40
2023-04-08T01:23:44.322Z,8.40
2023-04-08T01:26:21.574Z,8.40
2023-04-08T01:28:51.604Z,8.40
2023-04-08T01:31:20.219Z,8.40
2023-04-08T01:33:50.338Z,8.40
2023-04-08T01:36:19.374Z,8.40
2023-04-08T01:38:50.270Z,8.40
2023-04-08T01:41:21.160Z,8.30
2023-04-08T01:43:50.866Z,8.30
2023-04-08T01:46:19.194Z,8.30
2023-04-08T01:48:48.876Z,8.30
2023-04-08T01:51:17.999Z,8.30
2023-04-08T01:53:45.943Z,8.30
2023-04-08T01:56:15.573Z,8.20
2023-04-08T01:58:49.785Z,8.20
2023-04-08T02:01:21.008Z,8.20
2023-04-08T02:03:52.117Z,8.20
2023-04-08T02:06:20.213Z,8.20
2023-04-08T02:08:48.248Z,8.20
2023-04-08T02:11:16.441Z,8.20
2023-04-08T02:13:45.796Z,8.20
2023-04-08T02:16:20.484Z,8.20
2023-04-08T02:18:56.545Z,8.20
2023-04-08T02:21:33.003Z,8.20
2023-04-08T02:24:05.717Z,8.10
2023-04-08T02:26:37.319Z,8.20
2023-04-08T02:29:11.140Z,8.20
2023-04-08T02:31:40.923Z,8.10
2023-04-08T02:34:10.829Z,8.20
2023-04-08T02:36:40.992Z,8.20
2023-04-08T02:39:08.829Z,8.20
2023-04-08T02:41:36.616Z,8.20
2023-04-08T02:44:05.903Z,8.20
2023-04-08T02:46:33.893Z,8.20
2023-04-08T02:49:01.749Z,8.20
2023-04-08T02:51:29.650Z,8.20
2023-04-08T02:53:57.524Z,8.20
2023-04-08T02:56:25.696Z,8.20
2023-04-08T02:58:53.600Z,8.20
2023-04-08T03:01:23.161Z,8.20
2023-04-08T03:03:51.362Z,8.20
2023-04-08T03:06:19.349Z,8.20
2023-04-08T03:08:47.433Z,8.20
2023-04-08T03:11:15.814Z,8.20
2023-04-08T03:13:43.659Z,8.20
2023-04-08T03:16:11.495Z,8.20
2023-04-08T03:18:40.950Z,8.20
2023-04-08T03:21:08.788Z,8.20
2023-04-08T03:23:36.599Z,8.20
2023-04-08T03:26:04.500Z,8.20
2023-04-08T03:28:32.333Z,8.20
2023-04-08T03:31:00.968Z,8.20
2023-04-08T03:33:28.858Z,8.20
2023-04-08T03:35:58.114Z,8.20
2023-04-08T03:38:26.001Z,8.20
2023-04-08T03:40:53.879Z,8.20
2023-04-08T03:43:22.037Z,8.20
2023-04-08T03:45:50.098Z,8.20
2023-04-08T03:48:18.082Z,8.20
2023-04-08T03:50:45.972Z,8.20
2023-04-08T03:53:15.526Z,8.20
2023-04-08T03:55:43.444Z,8.20
2023-04-08T03:58:11.295Z,8.20
2023-04-08T04:00:39.135Z,8.20
2023-04-08T04:03:07.289Z,8.20
2023-04-08T04:05:35.507Z,8.20
2023-04-08T04:08:03.376Z,8.20
2023-04-08T04:10:32.582Z,8.20
2023-04-08T04:13:00.417Z,8.20
2023-04-08T04:15:28.401Z,8.20
2023-04-08T04:17:56.403Z,8.20
2023-04-08T04:20:26.025Z,8.20
2023-04-08T04:22:54.174Z,8.20
2023-04-08T04:25:22.132Z,8.20
2023-04-08T04:27:51.682Z,8.20
2023-04-08T04:30:19.856Z,8.20
2023-04-08T04:32:47.791Z,8.10
2023-04-08T04:35:15.947Z,8.20
2023-04-08T04:37:43.762Z,8.20
2023-04-08T04:40:12.156Z,8.20
2023-04-08T04:42:39.965Z,8.20
2023-04-08T04:45:10.774Z,8.10
2023-04-08T04:47:38.724Z,8.10
2023-04-08T04:50:07.734Z,8.10
2023-04-08T04:52:37.286Z,8.10
2023-04-08T04:55:05.825Z,8.10
2023-04-08T04:57:33.673Z,8.10
2023-04-08T05:00:03.837Z,8.10
2023-04-08T05:02:34.576Z,8.10
2023-04-08T05:05:02.766Z,8.10
2023-04-08T05:07:30.737Z,8.10
2023-04-08T05:09:58.632Z,8.10
2023-04-08T05:12:27.807Z,8.10
2023-04-08T05:14:55.650Z,8.10
2023-04-08T05:17:23.525Z,8.00
2023-04-08T05:19:53.291Z,8.00
2023-04-08T05:22:21.135Z,8.00
2023-04-08T05:24:49.104Z,8.00
2023-04-08T05:27:16.919Z,8.00
2023-04-08T05:29:44.756Z,8.00
2023-04-08T05:32:12.593Z,8.00
2023-04-08T05:34:40.695Z,8.00
2023-04-08T05:37:09.931Z,8.00
2023-04-08T05:39:37.928Z,8.00
2023-04-08T05:42:05.879Z,8.00
2023-04-08T05:44:33.680Z,8.00
2023-04-08T05:47:01.595Z,8.00
2023-04-08T05:49:29.508Z,8.00
2023-04-08T05:51:57.589Z,8.00
2023-04-08T05:54:26.870Z,8.00
2023-04-08T05:56:54.755Z,8.00
2023-04-08T05:59:22.651Z,8.10
2023-04-08T06:01:50.726Z,8.10
2023-04-08T06:04:18.725Z,8.10
2023-04-08T06:06:46.800Z,8.20
2023-04-08T06:09:14.682Z,8.20
2023-04-08T06:11:44.128Z,8.20
2023-04-08T06:14:11.993Z,8.20
2023-04-08T06:16:40.035Z,8.20
2023-04-08T06:19:07.919Z,8.20
2023-04-08T06:21:35.886Z,8.30
2023-04-08T06:24:03.868Z,8.30
2023-04-08T06:26:31.754Z,8.40
2023-04-08T06:29:01.967Z,8.40
2023-04-08T06:31:29.878Z,8.50
2023-04-08T06:33:57.708Z,8.50
2023-04-08T06:36:25.528Z,8.50
2023-04-08T06:38:53.334Z,8.50
2023-04-08T06:41:21.201Z,8.50
2023-04-08T06:43:49.082Z,8.40
2023-04-08T06:46:18.287Z,8.50
2023-04-08T06:48:46.189Z,8.50
2023-04-08T06:51:14.062Z,8.60
2023-04-08T06:53:41.948Z,8.70
2023-04-08T06:56:09.866Z,8.70
2023-04-08T06:58:37.794Z,8.80
2023-04-08T07:01:05.806Z,8.70
2023-04-08T07:03:35.216Z,8.80
2023-04-08T07:06:04.497Z,8.80
2023-04-08T07:08:32.474Z,8.90
2023-04-08T07:11:00.295Z,9.00
2023-04-08T07:13:28.135Z,9.10
2023-04-08T07:15:55.960Z,9.30
2023-04-08T07:18:23.949Z,9.40
2023-04-08T07:20:54.153Z,9.50
2023-04-08T07:23:22.291Z,9.60
2023-04-08T07:25:50.594Z,9.70
2023-04-08T07:28:18.470Z,9.80
2023-04-08T07:30:46.413Z,9.80
2023-04-08T07:33:14.736Z,9.80
2023-04-08T07:35:42.648Z,9.80
2023-04-08T07:38:13.441Z,9.80
2023-04-08T07:40:41.361Z,9.60
2023-04-08T07:43:10.010Z,9.60
2023-04-08T07:45:37.894Z,9.80
2023-04-08T07:48:06.194Z,9.90
2023-04-08T07:50:34.114Z,10.00
2023-04-08T07:53:23.994Z,10.10
2023-04-08T07:55:51.965Z,10.00
2023-04-08T07:58:19.957Z,10.10
2023-04-08T08:00:48.151Z,10.10
2023-04-08T08:03:16.618Z,10.10
2023-04-08T08:05:44.582Z,9.90
2023-04-08T08:08:12.574Z,9.90
2023-04-08T08:10:42.083Z,9.90
2023-04-08T08:13:09.873Z,10.00
2023-04-08T08:15:37.809Z,10.10
2023-04-08T08:18:05.740Z,10.50
2023-04-08T08:20:33.651Z,10.80
2023-04-08T08:23:01.559Z,11.00
2023-04-08T08:25:29.508Z,11.20
2023-04-08T08:27:58.739Z,11.30
2023-04-08T08:30:27.580Z,11.10
2023-04-08T08:32:56.449Z,11.10
2023-04-08T08:35:24.263Z,11.20
2023-04-08T08:37:52.138Z,11.20
2023-04-08T08:40:20.332Z,11.30
2023-04-08T08:42:52.329Z,11.60
2023-04-08T08:45:22.110Z,11.90
2023-04-08T08:47:51.384Z,11.90
2023-04-08T08:50:19.778Z,12.00
2023-04-08T08:52:50.068Z,11.90
2023-04-08T08:55:36.148Z,12.10
2023-04-08T08:58:08.432Z,12.10
2023-04-08T09:00:38.785Z,12.00
2023-04-08T09:03:18.091Z,11.80
2023-04-08T09:05:51.110Z,11.80
2023-04-08T09:08:26.737Z,11.90
2023-04-08T09:10:54.689Z,11.90
2023-04-08T09:13:24.586Z,11.70
2023-04-08T09:16:05.128Z,11.80
2023-04-08T09:18:34.084Z,11.70
2023-04-08T09:21:04.142Z,11.70
2023-04-08T09:23:43.340Z,11.70
2023-04-08T09:26:12.927Z,11.70
2023-04-08T09:28:42.030Z,12.00
2023-04-08T09:31:22.371Z,12.30
2023-04-08T09:33:51.731Z,12.50
2023-04-08T09:36:20.403Z,13.00
2023-04-08T09:38:48.892Z,13.30
2023-04-08T09:41:18.572Z,13.30
2023-04-08T09:43:50.621Z,13.30
2023-04-08T09:46:30.819Z,13.20
2023-04-08T09:49:06.917Z,13.10
2023-04-08T09:51:40.149Z,12.90
2023-04-08T09:54:13.814Z,12.90
2023-04-08T09:56:48.831Z,12.80
2023-04-08T09:59:21.756Z,12.90
2023-04-08T10:01:55.436Z,12.90
2023-04-08T10:04:27.424Z,12.80
2023-04-08T10:07:01.363Z,12.70
2023-04-08T10:09:29.732Z,12.90
2023-04-08T10:11:57.881Z,13.10
2023-04-08T10:14:28.706Z,13.10
2023-04-08T10:17:28.553Z,13.20
2023-04-08T10:19:58.494Z,13.30
2023-04-08T10:22:49.641Z,13.40
2023-04-08T10:25:31.657Z,13.30
2023-04-08T10:27:59.708Z,13.20
2023-04-08T10:30:44.165Z,13.30
2023-04-08T10:33:15.953Z,13.20
2023-04-08T10:35:48.509Z,13.30
2023-04-08T10:38:19.817Z,13.20
2023-04-08T10:40:49.832Z,13.10
2023-04-08T10:43:18.001Z,13.00
2023-04-08T10:45:51.196Z,12.70
2023-04-08T10:48:22.586Z,12.60
2023-04-08T10:50:55.492Z,12.60
2023-04-08T10:53:30.697Z,12.60
2023-04-08T10:56:08.580Z,12.70
2023-04-08T10:58:37.456Z,12.60
2023-04-08T11:01:07.454Z,12.60
2023-04-08T11:03:38.082Z,12.70
2023-04-08T11:06:07.465Z,12.70
2023-04-08T11:08:36.695Z,12.80
2023-04-08T11:11:08.748Z,12.70
2023-04-08T11:13:37.738Z,12.70
2023-04-08T11:16:17.227Z,12.70
2023-04-08T11:18:48.319Z,12.70
2023-04-08T11:21:17.165Z,12.80
2023-04-08T11:23:45.072Z,12.90
2023-04-08T11:26:13.015Z,12.90
2023-04-08T11:28:40.954Z,12.90
2023-04-08T11:31:09.983Z,13.00
2023-04-08T11:33:38.806Z,13.00
2023-04-08T11:36:08.494Z,13.00
2023-04-08T11:38:40.318Z,12.90
2023-04-08T11:41:08.271Z,13.00
2023-04-08T11:43:37.497Z,13.00
2023-04-08T11:46:11.408Z,12.90
2023-04-08T11:48:39.896Z,12.90
2023-04-08T11:51:09.872Z,13.00
2023-04-08T11:53:38.416Z,13.10
2023-04-08T11:56:19.796Z,13.30
2023-04-08T11:58:47.705Z,13.50
2023-04-08T12:01:15.886Z,13.50
2023-04-08T12:03:56.147Z,13.50
2023-04-08T12:06:27.632Z,13.50
2023-04-08T12:08:56.919Z,13.30
2023-04-08T12:11:25.284Z,13.20
2023-04-08T12:13:53.923Z,13.20
2023-04-08T12:16:22.148Z,13.30
2023-04-08T12:18:50.366Z,13.30
2023-04-08T12:21:18.310Z,13.40
2023-04-08T12:23:47.564Z,13.50
2023-04-08T12:26:15.407Z,13.70
2023-04-08T12:28:43.233Z,13.80
2023-04-08T12:31:11.039Z,13.90
2023-04-08T12:33:38.892Z,13.90
2023-04-08T12:36:06.995Z,14.00
2023-04-08T12:38:34.865Z,14.40
2023-04-08T12:41:04.082Z,14.60
2023-04-08T12:43:33.075Z,14.90
2023-04-08T12:46:01.652Z,15.00
2023-04-08T12:48:29.452Z,15.00
2023-04-08T12:50:58.698Z,14.80
2023-04-08T12:53:26.608Z,14.90
2023-04-08T12:55:56.980Z,15.10
2023-04-08T12:58:28.604Z,15.30
2023-04-08T13:00:56.526Z,15.30
2023-04-08T13:03:24.464Z,15.30
2023-04-08T13:05:52.493Z,15.50
2023-04-08T13:08:20.368Z,15.50
2023-04-08T13:10:48.419Z,15.20
2023-04-08T13:13:16.309Z,15.10
2023-04-08T13:15:45.719Z,14.90
2023-04-08T13:18:13.565Z,14.70
2023-04-08T13:20:41.547Z,14.70
2023-04-08T13:23:09.341Z,14.80
2023-04-08T13:25:37.222Z,14.70
2023-04-08T13:28:05.547Z,14.70
2023-04-08T13:30:33.448Z,14.80
2023-04-08T13:33:02.633Z,15.00
2023-04-08T13:35:30.626Z,15.10
2023-04-08T13:37:58.727Z,15.20
2023-04-08T13:40:27.765Z,15.00
2023-04-08T13:42:55.912Z,14.80
2023-04-08T13:45:23.938Z,14.80
2023-04-08T13:47:51.785Z,14.70
2023-04-08T13:50:21.015Z,14.60
2023-04-08T13:52:48.880Z,14.60
2023-04-08T13:55:17.366Z,14.50
2023-04-08T13:57:45.246Z,14.60
2023-04-08T14:00:14.194Z,14.80
2023-04-08T14:02:42.099Z,14.80
2023-04-08T14:05:10.711Z,14.80
2023-04-08T14:07:39.919Z,14.70
2023-04-08T14:10:09.024Z,14.80
2023-04-08T14:12:36.947Z,14.80
2023-04-08T14:15:05.301Z,14.90
2023-04-08T14:17:34.909Z,14.90
2023-04-08T14:20:02.902Z,14.80
2023-04-08T14:22:31.083Z,14.70
2023-04-08T14:25:00.290Z,14.80
2023-04-08T14:27:28.845Z,14.70
2023-04-08T14:29:56.732Z,14.70
2023-04-08T14:32:25.003Z,14.70
2023-04-08T14:34:52.892Z,14.40
2023-04-08T14:37:20.832Z,14.30
2023-04-08T14:39:48.713Z,14.20
2023-04-08T14:42:18.284Z,14.20
2023-04-08T14:44:46.549Z,14.10
2023-04-08T14:47:17.547Z,14.00
2023-04-08T14:49:45.519Z,13.90
2023-04-08T14:52:13.399Z,13.90
2023-04-08T14:54:41.301Z,13.70
2023-04-08T14:57:09.296Z,13.70
2023-04-08T14:59:38.781Z,13.80
2023-04-08T15:02:07.123Z,13.80
2023-04-08T15:04:35.751Z,13.90
2023-04-08T15:07:03.886Z,13.90
2023-04-08T15:09:31.727Z,13.90
2023-04-08T15:12:00.003Z,13.80
2023-04-08T15:14:28.328Z,13.60
2023-04-08T15:16:57.587Z,13.60
2023-04-08T15:19:25.475Z,13.60
2023-04-08T15:21:53.380Z,13.60
2023-04-08T15:24:21.280Z,13.50
2023-04-08T15:26:49.270Z,13.50
2023-04-08T15:29:17.188Z,13.40
2023-04-08T15:31:45.098Z,13.40
2023-04-08T15:34:14.545Z,13.40
2023-04-08T15:36:42.451Z,13.30
2023-04-08T15:39:10.450Z,13.40
2023-04-08T15:41:38.859Z,13.30
2023-04-08T15:44:07.106Z,13.30
2023-04-08T15:46:37.296Z,13.20
2023-04-08T15:49:06.163Z,13.20
2023-04-08T15:51:35.794Z,13.30
2023-04-08T15:54:04.612Z,13.30
2023-04-08T15:56:33.582Z,13.30
2023-04-08T15:59:02.808Z,13.20
2023-04-08T16:01:31.627Z,13.30
2023-04-08T16:04:00.037Z,13.20
2023-04-08T16:06:28.088Z,13.10
2023-04-08T16:08:57.696Z,13.00
2023-04-08T16:11:26.420Z,12.90
2023-04-08T16:13:54.425Z,12.80
2023-04-08T16:16:22.242Z,12.80
2023-04-08T16:18:50.218Z,12.80
2023-04-08T16:21:18.502Z,12.80
2023-04-08T16:23:46.342Z,12.90
2023-04-08T16:26:16.117Z,12.80
2023-04-08T16:28:44.287Z,12.70
2023-04-08T16:31:12.303Z,12.70
2023-04-08T16:33:40.522Z,12.60
2023-04-08T16:36:08.363Z,12.60
2023-04-08T16:38:36.560Z,12.60
2023-04-08T16:41:06.281Z,12.60
2023-04-08T16:43:36.316Z,12.60
2023-04-08T16:46:12.248Z,12.60
2023-04-08T16:48:41.983Z,12.60
2023-04-08T16:51:09.875Z,12.60
2023-04-08T16:53:38.227Z,12.50
2023-04-08T16:56:07.137Z,12.50
2023-04-08T16:58:37.228Z,12.50
2023-04-08T17:01:08.606Z,12.40
2023-04-08T17:03:36.875Z,12.50
2023-04-08T17:06:08.300Z,12.40
2023-04-08T17:08:36.237Z,12.40
2023-04-08T17:11:10.031Z,12.30
2023-04-08T17:13:39.969Z,12.30
2023-04-08T17:16:08.310Z,12.30
2023-04-08T17:18:36.137Z,12.30
2023-04-08T17:21:04.049Z,12.20
2023-04-08T17:23:31.906Z,12.20
2023-04-08T17:25:59.778Z,12.20
2023-04-08T17:28:27.658Z,12.10
2023-04-08T17:30:57.138Z,12.10
2023-04-08T17:33:25.094Z,12.00
2023-04-08T17:35:53.457Z,12.00
2023-04-08T17:38:21.563Z,12.00
2023-04-08T17:40:49.431Z,11.90
2023-04-08T17:43:17.834Z,11.90
2023-04-08T17:45:46.731Z,11.90
2023-04-08T17:48:16.033Z,11.80
2023-04-08T17:50:43.925Z,11.80
2023-04-08T17:53:11.765Z,11.70
2023-04-08T17:55:39.559Z,11.70
2023-04-08T17:58:07.516Z,11.60
2023-04-08T18:00:35.375Z,11.60
2023-04-08T18:03:03.489Z,11.60
2023-04-08T18:05:32.976Z,11.50
2023-04-08T18:08:00.842Z,11.50
2023-04-08T18:10:28.803Z,11.40
2023-04-08T18:13:08.030Z,11.30
2023-04-08T18:15:39.626Z,11.30
2023-04-08T18:18:07.548Z,11.20
2023-04-08T18:20:38.442Z,11.20
2023-04-08T18:23:06.315Z,11.20
2023-04-08T18:25:34.605Z,11.20
2023-04-08T18:28:02.594Z,11.10
2023-04-08T18:30:31.215Z,11.10
2023-04-08T18:32:59.422Z,11.00
2023-04-08T18:35:27.305Z,11.00
2023-04-08T18:37:57.144Z,10.90
2023-04-08T18:40:25.480Z,10.90
2023-04-08T18:42:53.627Z,10.80
2023-04-08T18:45:21.437Z,10.80
2023-04-08T18:47:49.286Z,10.80
2023-04-08T18:50:17.651Z,10.80
2023-04-08T18:52:45.520Z,10.70
2023-04-08T18:55:14.750Z,10.70
2023-04-08T18:57:42.747Z,10.70
2023-04-08T19:00:11.521Z,10.70
2023-04-08T19:02:39.858Z,10.70
2023-04-08T19:05:08.703Z,10.70
2023-04-08T19:07:36.766Z,10.70
2023-04-08T19:10:05.049Z,10.60
2023-04-08T19:12:34.688Z,10.60
2023-04-08T19:15:04.142Z,10.60
2023-04-08T19:17:32.116Z,10.60
2023-04-08T19:20:00.066Z,10.60
2023-04-08T19:22:27.914Z,10.50
2023-04-08T19:24:56.007Z,10.50
2023-04-08T19:27:24.087Z,10.50
2023-04-08T19:29:53.836Z,10.50
2023-04-08T19:32:21.854Z,10.50
2023-04-08T19:34:49.802Z,10.50
2023-04-08T19:37:17.733Z,10.50
2023-04-08T19:39:45.767Z,10.50
2023-04-08T19:42:13.673Z,10.50
2023-04-08T19:44:41.586Z,10.60
2023-04-08T19:47:10.841Z,10.50
2023-04-08T19:49:39.230Z,10.50
2023-04-08T19:52:07.466Z,10.50
2023-04-08T19:54:36.250Z,10.50
2023-04-08T19:57:04.321Z,10.50
2023-04-08T19:59:32.149Z,10.50
2023-04-08T20:02:00.034Z,10.40
2023-04-08T20:04:29.392Z,10.40
2023-04-08T20:06:57.460Z,10.40
2023-04-08T20:09:25.399Z,10.40
2023-04-08T20:11:53.266Z,10.40
2023-04-08T20:14:21.255Z,10.40
2023-04-08T20:16:49.060Z,10.40
2023-04-08T20:19:17.002Z,10.40
2023-04-08T20:21:46.641Z,10.30
2023-04-08T20:24:14.612Z,10.40
2023-04-08T20:26:42.523Z,10.30
2023-04-08T20:29:11.005Z,10.30
2023-04-08T20:31:39.742Z,10.30
2023-04-08T20:34:08.419Z,10.30
2023-04-08T20:36:36.312Z,10.30
2023-04-08T20:39:05.702Z,10.40
2023-04-08T20:41:33.606Z,10.30
2023-04-08T20:44:01.408Z,10.30
2023-04-08T20:46:29.430Z,10.30
2023-04-08T20:48:57.517Z,10.20
2023-04-08T20:51:25.354Z,10.30
2023-04-08T20:53:53.195Z,10.20
2023-04-08T20:56:22.692Z,10.20
2023-04-08T20:58:50.693Z,10.30
2023-04-08T21:01:18.917Z,10.20
2023-04-08T21:03:46.866Z,10.20
2023-04-08T21:06:18.223Z,10.20
2023-04-08T21:08:46.613Z,10.20
2023-04-08T21:11:14.685Z,10.20
2023-04-08T21:13:45.530Z,10.20
2023-04-08T21:16:15.329Z,10.20
2023-04-08T21:18:43.207Z,10.20
2023-04-08T21:21:11.656Z,10.20
2023-04-08T21:23:39.532Z,10.20
2023-04-08T21:26:12.432Z,10.20
2023-04-08T21:28:40.728Z,10.20
2023-04-08T21:31:10.670Z,10.10
2023-04-08T21:33:38.877Z,10.10
2023-04-08T21:36:07.391Z,10.00
2023-04-08T21:38:35.722Z,10.00
2023-04-08T21:41:03.826Z,9.90
2023-04-08T21:43:31.895Z,9.90
2023-04-08T21:45:59.807Z,9.90
2023-04-08T21:48:29.139Z,9.90
2023-04-08T21:50:57.179Z,9.90
2023-04-08T21:53:25.722Z,9.90
2023-04-08T21:55:53.582Z,9.80
2023-04-08T21:58:21.567Z,9.80
2023-04-08T22:00:50.645Z,9.90
2023-04-08T22:03:18.869Z,9.90
2023-04-08T22:05:48.375Z,9.90
2023-04-08T22:08:16.364Z,9.90
2023-04-08T22:10:44.282Z,9.90
2023-04-08T22:13:12.252Z,9.90
2023-04-08T22:15:40.213Z,9.90
2023-04-08T22:18:08.171Z,9.90
2023-04-08T22:20:36.499Z,9.90
2023-04-08T22:23:05.798Z,9.90
2023-04-08T22:25:33.624Z,9.90
2023-04-08T22:28:01.843Z,9.90
2023-04-08T22:30:30.799Z,10.00
2023-04-08T22:32:58.962Z,9.90
2023-04-08T22:35:27.177Z,9.90
2023-04-08T22:37:55.069Z,9.90
2023-04-08T22:40:24.515Z,9.90
2023-04-08T22:42:53.701Z,9.90
2023-04-08T22:45:21.737Z,9.90
2023-04-08T22:47:49.768Z,9.90
2023-04-08T22:50:17.764Z,9.90
2023-04-08T22:52:45.661Z,9.90
2023-04-08T22:55:13.735Z,9.90
2023-04-08T22:57:42.960Z,9.90
2023-04-08T23:00:12.199Z,9.80
2023-04-08T23:02:40.163Z,9.90
2023-04-08T23:05:09.129Z,9.80
2023-04-08T23:07:37.086Z,9.80
2023-04-08T23:10:05.442Z,9.80
2023-04-08T23:12:33.397Z,9.80
2023-04-08T23:15:02.618Z,9.80
2023-04-08T23:17:30.733Z,9.80
2023-04-08T23:19:58.635Z,9.80
2023-04-08T23:22:26.554Z,9.80
2023-04-08T23:24:54.432Z,9.80
2023-04-08T23:27:22.325Z,9.80
2023-04-08T23:29:50.325Z,9.80
2023-04-08T23:32:19.871Z,9.70
2023-04-08T23:34:47.967Z,9.80
2023-04-08T23:37:15.883Z,9.70
2023-04-08T23:39:43.797Z,9.70
2023-04-08T23:42:11.784Z,9.70
2023-04-08T23:44:39.812Z,9.60
2023-04-08T23:47:07.734Z,9.60
2023-04-08T23:49:36.906Z,9.50
2023-04-08T23:52:05.441Z,9.50
2023-04-08T23:54:33.909Z,9.40
2023-04-08T23:57:02.114Z,9.30
2023-04-08T23:59:30.002Z,9.20
